METAR Data
IDs: Format: Raw Decoded Include TAF

Data at: 0031 UTC 26 Oct 2021

KFTW 252353Z 09006KT 10SM CLR 27/17 A2990 RMK AO2 SLP116 T02720172 10300 20267 55002
KFTW 252253Z 09008KT 10SM CLR 29/17 A2989 RMK AO2 SLP113 T02890172
KFTW 252153Z 11005KT 10SM CLR 29/17 A2989 RMK AO2 SLP114 T02940167
KFTW 252053Z VRB04KT 10SM CLR 29/17 A2990 RMK AO2 SLP117 T02940167 56020
KFTW 251953Z 10006KT 10SM CLR 29/15 A2992 RMK AO2 SLP122 T02890150
KFTW 251853Z 11007KT 10SM CLR 28/14 A2994 RMK AO2 SLP129 T02830139
KFTW 251753Z VRB04KT 10SM CLR 27/12 A2996 RMK AO2 SLP138 T02670117 10267 20156 58012
KFTW 251653Z 10008KT 10SM CLR 25/11 A2998 RMK AO2 SLP144 T02500106
KFTW 251153Z 05003KT 10SM CLR 17/13 A2994 RMK AO2 SLP131 T01670133 10217 20167 51005
KFTW 251053Z 08003KT 10SM CLR 18/13 A2994 RMK AO2 SLP131 T01780133
KFTW 250953Z 04003KT 10SM CLR 17/13 A2993 RMK AO2 SLP127 T01720133
KFTW 250853Z 06005KT 10SM CLR 18/13 A2992 RMK AO2 SLP124 T01830133 51007
KFTW 250753Z 05006KT 10SM CLR 19/13 A2992 RMK AO2 SLP123 T01890128
KFTW 250653Z AUTO 05007KT 10SM CLR 20/12 A2991 RMK AO2 SLP119 T02000122
KFTW 250453Z 02009KT 10SM CLR 23/11 A2990 RMK AO2 SLP116 T02280106
KFTW 250253Z 00000KT 10SM CLR 26/19 A2985 RMK AO2 SLP101 T02560194 53033
KFTW 250153Z 00000KT 10SM BKN035 BKN055 26/20 A2983 RMK AO2 LTG DSNT E SLP092 T02610200
KFTW 250053Z 17009KT 10SM CLR 26/19 A2977 RMK AO2 LTG DSNT NE SLP074 T02560194
KFTW 242353Z 16011KT 10SM CLR 27/19 A2976 RMK AO2 SLP067 T02720194 10300 20272 53004
KFTW 242253Z 17011KT 10SM CLR 29/19 A2975 RMK AO2 SLP064 T02890194
KFTW 242153Z 18012G20KT 10SM CLR 29/20 A2975 RMK AO2 SLP066 T02940200
KFTW 242053Z 16013G21KT 10SM BKN043 BKN050 30/20 A2974 RMK AO2 SLP063 T03000200 56016
KFTW 241953Z 19016G24KT 10SM SCT040 30/19 A2974 RMK AO2 SLP063 T03000194
KFTW 241853Z 18013G22KT 10SM BKN036 28/19 A2977 RMK AO2 PK WND 19027/1758 SLP074 T02780194
KFTW 241811Z 19018G24KT 10SM BKN030 BKN035 28/19 A2978 RMK AO2 PK WND 19027/1758 T02830194
KFTW 241653Z 17014G26KT 10SM OVC026 25/19 A2981 RMK AO2 PK WND 18026/1646 SLP087 T02500194
KFTW 241635Z 17014G24KT 10SM BKN026 OVC032 26/19 A2982 RMK AO2 PK WND 18026/1614 T02560194
KFTW 241625Z 18014G24KT 10SM SCT023 BKN030 25/19 A2982 RMK AO2 PK WND 18026/1614 T02500194
KFTW 241613Z 17016G24KT 10SM BKN023 25/19 A2982 RMK AO2 T02500194
KFTW 241553Z AUTO 17016G23KT 10SM FEW021 25/19 A2982 RMK AO2 SLP090 T02500194
KFTW 241453Z 18012G20KT 10SM SCT110 24/19 A2984 RMK AO2 SLP096 T02440194 53008
KFTW 241353Z 16013KT 10SM CLR 22/19 A2981 RMK AO2 SLP087 T02220189
KFTW 241327Z 17011KT 10SM SCT025 SCT120 21/19 A2982 RMK AO2 T02110189
KFTW 241253Z 17012KT 10SM OVC020 21/18 A2982 RMK AO2 SLP091 T02060183